createdAt,value
2023-04-02T00:00:35.933Z,99947.70
2023-04-02T00:03:10.270Z,99948.25
2023-04-02T00:05:37.186Z,99950.72
2023-04-02T00:08:19.217Z,99950.45
2023-04-02T00:10:56.859Z,99951.43
2023-04-02T00:13:39.017Z,99949.13
2023-04-02T00:16:09.249Z,99948.20
2023-04-02T00:18:42.693Z,99946.98
2023-04-02T00:21:24.522Z,99949.67
2023-04-02T00:23:55.687Z,99946.60
2023-04-02T00:26:30.890Z,99948.91
2023-04-02T00:29:00.771Z,99954.19
2023-04-02T00:31:28.198Z,99950.89
2023-04-02T00:33:56.170Z,99953.48
2023-04-02T00:36:26.723Z,99951.39
2023-04-02T00:38:58.358Z,99953.74
2023-04-02T00:41:29.903Z,99953.52
2023-04-02T00:43:58.919Z,99956.12
2023-04-02T00:46:32.442Z,99956.94
2023-04-02T00:49:22.760Z,99955.94
2023-04-02T00:52:03.162Z,99959.90
2023-04-02T00:54:37.064Z,99957.09
2023-04-02T00:57:04.057Z,99955.92
2023-04-02T00:59:32.567Z,99961.55
2023-04-02T01:02:22.442Z,99960.77
2023-04-02T01:05:15.580Z,99959.10
2023-04-02T01:07:57.235Z,99963.29
2023-04-02T01:10:42.946Z,99963.13
2023-04-02T01:13:35.178Z,99958.05
2023-04-02T01:16:29.554Z,99958.87
2023-04-02T01:19:08.784Z,99956.00
2023-04-02T01:21:55.506Z,99952.36
2023-04-02T01:24:27.139Z,99949.32
2023-04-02T01:27:08.216Z,99955.49
2023-04-02T01:29:39.330Z,99950.25
2023-04-02T01:32:10.888Z,99947.81
2023-04-02T01:34:39.113Z,99947.19
2023-04-02T01:37:08.505Z,99949.48
2023-04-02T01:39:50.489Z,99953.42
2023-04-02T01:42:27.103Z,99959.73
2023-04-02T01:45:01.499Z,99959.84
2023-04-02T01:47:29.057Z,99964.08
2023-04-02T01:50:19.258Z,99963.83
2023-04-02T01:52:52.443Z,99969.92
2023-04-02T01:55:30.092Z,99964.20
2023-04-02T01:57:58.885Z,99971.83
2023-04-02T02:00:28.016Z,99973.76
2023-04-02T02:02:55.438Z,99970.44
2023-04-02T02:05:23.761Z,99970.10
2023-04-02T02:07:52.837Z,99976.98
2023-04-02T02:10:34.826Z,99976.83
2023-04-02T02:13:01.768Z,99986.89
2023-04-02T02:15:29.099Z,99984.77
2023-04-02T02:18:03.887Z,99985.79
2023-04-02T02:20:32.638Z,99988.81
2023-04-02T02:23:01.443Z,99992.39
2023-04-02T02:25:32.533Z,99991.90
2023-04-02T02:28:16.087Z,99997.66
2023-04-02T02:31:19.450Z,99997.34
2023-04-02T02:33:51.228Z,99993.88
2023-04-02T02:36:23.338Z,99987.13
2023-04-02T02:39:13.973Z,99988.09
2023-04-02T02:42:06.126Z,99994.01
2023-04-02T02:44:36.939Z,99994.34
2023-04-02T02:47:22.765Z,100005.84
2023-04-02T02:49:54.294Z,100007.38
2023-04-02T02:52:28.281Z,100011.95
2023-04-02T02:55:02.209Z,100022.80
2023-04-02T02:57:41.562Z,100026.58
2023-04-02T03:00:11.848Z,100030.36
2023-04-02T03:02:41.572Z,100030.84
2023-04-02T03:05:15.988Z,100031.19
2023-04-02T03:07:43.830Z,100035.61
2023-04-02T03:10:19.516Z,100036.77
2023-04-02T03:13:06.014Z,100044.39
2023-04-02T03:15:59.003Z,100049.81
2023-04-02T03:18:26.319Z,100047.30
2023-04-02T03:20:58.261Z,100058.65
2023-04-02T03:23:34.969Z,100056.61
2023-04-02T03:26:08.371Z,100064.95
2023-04-02T03:28:41.356Z,100059.84
2023-04-02T03:31:18.117Z,100069.77
2023-04-02T03:33:54.740Z,100069.33
2023-04-02T03:36:33.883Z,100068.86
2023-04-02T03:39:41.531Z,100074.61
2023-04-02T03:42:27.130Z,100085.13
2023-04-02T03:45:05.313Z,100074.95
2023-04-02T03:47:40.062Z,100084.29
2023-04-02T03:50:13.505Z,100082.23
2023-04-02T03:52:40.697Z,100085.77
2023-04-02T03:55:19.623Z,100091.96
2023-04-02T03:58:00.283Z,100095.64
2023-04-02T04:00:38.470Z,100095.73
2023-04-02T04:03:13.364Z,100094.59
2023-04-02T04:05:55.794Z,100100.11
2023-04-02T04:08:30.627Z,100097.91
2023-04-02T04:11:01.952Z,100099.21
2023-04-02T04:13:36.897Z,100097.14
2023-04-02T04:16:10.217Z,100097.39
2023-04-02T04:18:53.225Z,100098.40
2023-04-02T04:21:31.241Z,100094.86
2023-04-02T04:24:08.048Z,100093.91
2023-04-02T04:26:53.754Z,100092.66
2023-04-02T04:29:45.741Z,100092.59
2023-04-02T04:32:32.524Z,100095.54
2023-04-02T04:35:31.474Z,100099.60
2023-04-02T04:38:05.083Z,100098.30
2023-04-02T04:40:42.434Z,100106.88
2023-04-02T04:43:17.548Z,100108.23
2023-04-02T04:45:55.841Z,100113.50
2023-04-02T04:48:29.843Z,100116.67
2023-04-02T04:51:01.691Z,100126.75
2023-04-02T04:53:30.602Z,100133.55
2023-04-02T04:56:18.108Z,100141.98
2023-04-02T04:58:58.329Z,100155.15
2023-04-02T05:01:34.230Z,100160.81
2023-04-02T05:04:09.325Z,100166.44
2023-04-02T05:06:43.567Z,100176.09
2023-04-02T05:09:38.225Z,100186.34
2023-04-02T05:12:31.258Z,100189.30
2023-04-02T05:15:09.612Z,100186.82
2023-04-02T05:17:48.804Z,100191.75
2023-04-02T05:20:40.452Z,100188.73
2023-04-02T05:23:19.651Z,100197.92
2023-04-02T05:26:09.448Z,100206.27
2023-04-02T05:29:14.782Z,100210.29
2023-04-02T05:32:07.934Z,100213.45
2023-04-02T05:34:39.480Z,100211.65
2023-04-02T05:37:13.472Z,100215.54
2023-04-02T05:39:44.923Z,100218.68
2023-04-02T05:42:22.477Z,100223.52
2023-04-02T05:45:06.795Z,100231.38
2023-04-02T05:47:34.476Z,100232.58
2023-04-02T05:50:05.928Z,100244.27
2023-04-02T05:52:36.336Z,100251.21
2023-04-02T05:55:41.002Z,100263.09
2023-04-02T06:01:04.057Z,100283.05
2023-04-02T06:03:45.040Z,100285.53
2023-04-02T06:06:44.021Z,100292.44
2023-04-02T06:09:42.992Z,100299.38
2023-04-02T06:12:33.136Z,100294.35
2023-04-02T06:15:00.942Z,100293.95
2023-04-02T06:17:30.382Z,100296.39
2023-04-02T06:19:59.446Z,100298.62
2023-04-02T06:22:36.478Z,100303.71
2023-04-02T06:25:29.872Z,100314.86
2023-04-02T06:27:59.804Z,100330.98
2023-04-02T06:30:33.145Z,100338.45
2023-04-02T06:33:00.905Z,100342.00
2023-04-02T06:35:29.356Z,100344.11
2023-04-02T06:38:03.090Z,100347.65
2023-04-02T06:40:38.688Z,100349.20
2023-04-02T06:43:53.205Z,100354.80
2023-04-02T06:46:52.559Z,100356.55
2023-04-02T06:49:36.466Z,100362.80
2023-04-02T06:52:13.360Z,100363.97
2023-04-02T06:54:40.350Z,100357.27
2023-04-02T06:57:10.924Z,100354.66
2023-04-02T06:59:41.109Z,100352.27
2023-04-02T07:02:33.850Z,100356.33
2023-04-02T07:05:06.605Z,100359.65
2023-04-02T07:07:35.536Z,100362.09
2023-04-02T07:10:05.007Z,100361.39
2023-04-02T07:12:31.669Z,100372.15
2023-04-02T07:14:58.400Z,100376.77
2023-04-02T07:17:25.118Z,100379.25
2023-04-02T07:19:51.808Z,100386.11
2023-04-02T07:22:22.227Z,100393.91
2023-04-02T07:24:55.549Z,100397.83
2023-04-02T07:27:22.246Z,100402.86
2023-04-02T07:29:48.829Z,100408.84
2023-04-02T07:32:15.732Z,100417.82
2023-04-02T07:34:42.386Z,100417.02
2023-04-02T07:37:13.986Z,100420.20
2023-04-02T07:39:40.823Z,100427.17
2023-04-02T07:42:08.165Z,100430.58
2023-04-02T07:44:34.888Z,100434.74
2023-04-02T07:47:01.963Z,100434.79
2023-04-02T07:49:28.828Z,100432.34
2023-04-02T07:51:55.455Z,100435.07
2023-04-02T07:54:22.114Z,100438.27
2023-04-02T07:56:48.876Z,100436.94
2023-04-02T07:59:15.900Z,100437.13
2023-04-02T08:01:43.341Z,100439.39
2023-04-02T08:04:19.490Z,100442.59
2023-04-02T08:06:47.503Z,100445.33
2023-04-02T08:09:15.872Z,100441.89
2023-04-02T08:11:43.044Z,100448.70
2023-04-02T08:14:10.406Z,100452.16
2023-04-02T08:17:04.029Z,100452.54
2023-04-02T08:19:31.846Z,100454.58
2023-04-02T08:21:58.669Z,100459.02
2023-04-02T08:24:25.606Z,100461.71
2023-04-02T08:26:54.419Z,100463.59
2023-04-02T08:29:21.782Z,100471.45
2023-04-02T08:31:48.487Z,100481.38
2023-04-02T08:34:15.456Z,100495.19
2023-04-02T08:36:45.207Z,100499.86
2023-04-02T08:39:12.789Z,100499.04
2023-04-02T08:42:04.170Z,100494.44
2023-04-02T08:44:44.811Z,100502.61
2023-04-02T08:47:14.275Z,100497.11
2023-04-02T08:49:50.160Z,100492.60
2023-04-02T08:52:36.771Z,100492.98
2023-04-02T08:55:13.374Z,100487.67
2023-04-02T08:58:18.525Z,100487.66
2023-04-02T09:00:47.180Z,100485.14
2023-04-02T09:03:21.492Z,100486.83
2023-04-02T09:05:51.229Z,100488.37
2023-04-02T09:08:26.338Z,100498.27
2023-04-02T09:11:19.099Z,100497.02
2023-04-02T09:13:48.818Z,100499.20
2023-04-02T09:16:22.645Z,100500.52
2023-04-02T09:18:52.789Z,100496.37
2023-04-02T09:21:42.414Z,100493.73
2023-04-02T09:24:13.345Z,100498.05
2023-04-02T09:26:40.445Z,100493.68
2023-04-02T09:29:13.439Z,100498.17
2023-04-02T09:32:19.339Z,100502.80
2023-04-02T09:34:46.252Z,100499.58
2023-04-02T09:37:18.940Z,100501.60
2023-04-02T09:39:46.137Z,100504.75
2023-04-02T09:42:32.106Z,100504.77
2023-04-02T09:45:20.929Z,100501.42
2023-04-02T09:47:48.419Z,100501.19
2023-04-02T09:50:21.069Z,100504.89
2023-04-02T09:52:48.944Z,100505.98
2023-04-02T09:55:15.596Z,100505.64
2023-04-02T09:57:43.330Z,100506.52
2023-04-02T10:00:39.569Z,100504.77
2023-04-02T10:03:17.943Z,100505.27
2023-04-02T10:05:46.782Z,100505.77
2023-04-02T10:08:28.239Z,100505.98
2023-04-02T10:11:01.249Z,100509.77
2023-04-02T10:13:35.120Z,100499.05
2023-04-02T10:16:09.551Z,100496.77
2023-04-02T10:18:54.635Z,100497.38
2023-04-02T10:21:32.380Z,100494.65
2023-04-02T10:23:59.779Z,100493.77
2023-04-02T10:26:41.672Z,100491.74
2023-04-02T10:29:23.133Z,100494.02
2023-04-02T10:32:13.707Z,100491.02
2023-04-02T10:34:56.434Z,100493.23
2023-04-02T10:37:48.976Z,100495.91
2023-04-02T10:40:45.263Z,100497.44
2023-04-02T10:43:27.182Z,100493.95
2023-04-02T10:46:15.683Z,100491.23
2023-04-02T10:49:00.902Z,100491.64
2023-04-02T10:51:54.246Z,100491.55
2023-04-02T10:54:48.486Z,100484.80
2023-04-02T10:57:29.079Z,100487.08
2023-04-02T11:00:11.390Z,100484.14
2023-04-02T11:02:53.362Z,100488.77
2023-04-02T11:05:28.116Z,100492.95
2023-04-02T11:08:15.680Z,100490.17
2023-04-02T11:10:53.001Z,100492.58
2023-04-02T11:13:46.665Z,100496.48
2023-04-02T11:16:17.186Z,100496.67
2023-04-02T11:19:09.745Z,100504.94
2023-04-02T11:21:51.079Z,100516.90
2023-04-02T11:24:31.760Z,100523.60
2023-04-02T11:27:20.889Z,100525.33
2023-04-02T11:29:58.463Z,100533.52
2023-04-02T11:32:33.749Z,100535.17
2023-04-02T11:35:26.970Z,100551.08
2023-04-02T11:38:23.911Z,100562.95
2023-04-02T11:40:59.895Z,100564.88
2023-04-02T11:43:32.514Z,100577.60
2023-04-02T11:46:00.378Z,100580.30
2023-04-02T11:48:29.853Z,100587.81
2023-04-02T11:50:57.581Z,100592.73
2023-04-02T11:53:34.586Z,100589.98
2023-04-02T11:56:40.469Z,100587.11
2023-04-02T11:59:21.367Z,100579.19
2023-04-02T12:02:05.786Z,100577.22
2023-04-02T12:05:04.548Z,100573.85
2023-04-02T12:08:19.163Z,100564.28
2023-04-02T12:10:57.815Z,100553.46
2023-04-02T12:13:39.927Z,100556.45
2023-04-02T12:16:08.826Z,100560.16
2023-04-02T12:18:36.519Z,100547.48
2023-04-02T12:21:03.331Z,100537.27
2023-04-02T12:23:33.411Z,100541.77
2023-04-02T12:26:03.597Z,100539.85
2023-04-02T12:28:34.153Z,100535.02
2023-04-02T12:31:10.134Z,100524.23
2023-04-02T12:33:39.142Z,100514.67
2023-04-02T12:36:14.168Z,100509.30
2023-04-02T12:38:48.391Z,100508.88
2023-04-02T12:41:36.534Z,100499.33
2023-04-02T12:44:15.583Z,100490.11
2023-04-02T12:46:43.490Z,100482.65
2023-04-02T12:49:34.212Z,100479.39
2023-04-02T12:52:09.065Z,100469.42
2023-04-02T12:54:45.109Z,100469.69
2023-04-02T12:57:30.289Z,100465.65
2023-04-02T13:00:00.177Z,100465.08
2023-04-02T13:02:32.807Z,100457.30
2023-04-02T13:05:01.555Z,100455.40
2023-04-02T13:10:26.538Z,100439.79
2023-04-02T13:13:01.141Z,100436.04
2023-04-02T13:15:31.685Z,100428.94
2023-04-02T13:18:13.690Z,100425.70
2023-04-02T13:20:42.345Z,100425.64
2023-04-02T13:23:47.489Z,100425.64
2023-04-02T13:26:29.453Z,100425.20
2023-04-02T13:29:04.275Z,100418.85
2023-04-02T13:31:33.996Z,100418.55
2023-04-02T13:34:01.502Z,100414.77
2023-04-02T13:36:29.565Z,100409.02
2023-04-02T13:38:58.111Z,100412.09
2023-04-02T13:41:27.983Z,100409.96
2023-04-02T13:43:56.715Z,100410.97
2023-04-02T13:46:26.663Z,100416.13
2023-04-02T13:48:55.091Z,100410.64
2023-04-02T13:51:27.993Z,100410.69
2023-04-02T13:53:57.616Z,100411.26
2023-04-02T13:56:24.986Z,100412.48
2023-04-02T13:58:52.354Z,100414.20
2023-04-02T14:01:21.771Z,100408.60
2023-04-02T14:03:49.109Z,100409.76
2023-04-02T14:06:32.871Z,100409.70
2023-04-02T14:09:09.946Z,100404.48
2023-04-02T14:12:22.169Z,100406.48
2023-04-02T14:15:11.811Z,100410.21
2023-04-02T14:17:57.556Z,100416.19
2023-04-02T14:20:33.293Z,100419.15
2023-04-02T14:23:13.721Z,100417.08
2023-04-02T14:25:55.881Z,100420.41
2023-04-02T14:28:39.553Z,100418.17
2023-04-02T14:31:09.152Z,100407.84
2023-04-02T14:33:54.526Z,100414.48
2023-04-02T14:36:27.355Z,100407.96
2023-04-02T14:39:21.618Z,100401.73
2023-04-02T14:42:13.970Z,100402.33
2023-04-02T14:44:57.768Z,100401.98
2023-04-02T14:47:31.341Z,100404.77
2023-04-02T14:50:11.033Z,100416.77
2023-04-02T14:52:43.200Z,100424.29
2023-04-02T14:55:33.060Z,100424.34
2023-04-02T14:58:04.771Z,100428.71
2023-04-02T15:00:34.546Z,100428.34
2023-04-02T15:03:22.232Z,100422.54
2023-04-02T15:05:56.199Z,100423.44
2023-04-02T15:08:27.902Z,100422.09
2023-04-02T15:11:20.043Z,100426.90
2023-04-02T15:13:58.394Z,100427.40
2023-04-02T15:16:29.072Z,100423.66
2023-04-02T15:18:57.428Z,100419.08
2023-04-02T15:21:49.660Z,100417.74
2023-04-02T15:24:54.331Z,100414.45
2023-04-02T15:27:48.496Z,100412.66
2023-04-02T15:30:27.783Z,100412.33
2023-04-02T15:32:59.198Z,100418.20
2023-04-02T15:35:44.984Z,100420.23
2023-04-02T15:38:16.008Z,100418.56
2023-04-02T15:41:01.847Z,100423.10
2023-04-02T15:43:43.461Z,100423.66
2023-04-02T15:46:31.495Z,100418.48
2023-04-02T15:49:20.418Z,100423.55
2023-04-02T15:52:06.884Z,100426.29
2023-04-02T15:55:10.606Z,100425.75
2023-04-02T15:57:53.287Z,100428.20
2023-04-02T16:00:33.566Z,100430.09
2023-04-02T16:03:27.916Z,100428.63
2023-04-02T16:06:01.105Z,100433.10
2023-04-02T16:08:34.009Z,100432.13
2023-04-02T16:11:01.092Z,100436.38
2023-04-02T16:13:35.854Z,100439.77
2023-04-02T16:16:12.353Z,100441.07
2023-04-02T16:18:55.746Z,100443.85
2023-04-02T16:21:27.606Z,100442.32
2023-04-02T16:23:54.366Z,100446.53
2023-04-02T16:26:32.046Z,100449.02
2023-04-02T16:29:20.527Z,100443.34
2023-04-02T16:31:58.573Z,100449.04
2023-04-02T16:34:28.856Z,100452.54
2023-04-02T16:37:06.479Z,100452.66
2023-04-02T16:39:58.180Z,100450.67
2023-04-02T16:42:49.036Z,100453.55
2023-04-02T16:45:29.188Z,100462.99
2023-04-02T16:48:20.501Z,100467.14
2023-04-02T16:50:50.197Z,100470.20
2023-04-02T16:53:34.414Z,100472.36
2023-04-02T16:56:22.874Z,100473.41
2023-04-02T16:58:58.006Z,100475.19
2023-04-02T17:02:12.890Z,100475.18
2023-04-02T17:04:56.284Z,100477.30
2023-04-02T17:07:31.657Z,100475.41
2023-04-02T17:10:27.079Z,100476.92
2023-04-02T17:13:31.766Z,100478.80
2023-04-02T17:16:21.900Z,100475.92
2023-04-02T17:18:52.410Z,100474.86
2023-04-02T17:21:25.299Z,100475.25
2023-04-02T17:24:00.564Z,100479.07
2023-04-02T17:26:30.633Z,100481.43
2023-04-02T17:29:01.319Z,100479.89
2023-04-02T17:31:34.274Z,100487.21
2023-04-02T17:34:13.775Z,100492.02
2023-04-02T17:36:58.790Z,100499.19
2023-04-02T17:39:36.795Z,100502.92
2023-04-02T17:42:15.957Z,100503.48
2023-04-02T17:44:49.009Z,100511.69
2023-04-02T17:47:39.528Z,100516.90
2023-04-02T17:50:12.102Z,100524.81
2023-04-02T17:53:19.197Z,100526.36
2023-04-02T17:56:24.287Z,100528.17
2023-04-02T17:59:00.377Z,100532.55
2023-04-02T18:01:34.768Z,100536.86
2023-04-02T18:04:28.151Z,100541.56
2023-04-02T18:07:27.093Z,100548.02
2023-04-02T18:10:05.180Z,100552.76
2023-04-02T18:12:52.257Z,100559.26
2023-04-02T18:15:56.898Z,100566.75
2023-04-02T18:18:34.911Z,100575.94
2023-04-02T18:21:36.060Z,100585.33
2023-04-02T18:24:46.384Z,100588.31
2023-04-02T18:27:41.258Z,100595.45
2023-04-02T18:30:47.731Z,100600.71
2023-04-02T18:33:33.140Z,100612.10
2023-04-02T18:36:07.801Z,100614.09
2023-04-02T18:38:44.785Z,100614.10
2023-04-02T18:41:28.293Z,100615.97
2023-04-02T18:44:04.173Z,100623.66
2023-04-02T18:46:43.650Z,100626.76
2023-04-02T18:49:19.891Z,100630.23
2023-04-02T18:51:52.512Z,100634.17
2023-04-02T18:54:43.302Z,100635.05
2023-04-02T18:57:23.986Z,100636.51
2023-04-02T19:00:16.940Z,100640.22
2023-04-02T19:03:19.417Z,100641.67
2023-04-02T19:05:54.056Z,100642.42
2023-04-02T19:08:28.330Z,100648.34
2023-04-02T19:11:01.876Z,100653.05
2023-04-02T19:13:39.914Z,100657.71
2023-04-02T19:19:51.159Z,100660.62
2023-04-02T19:22:43.656Z,100657.17
2023-04-02T19:25:26.625Z,100656.11
2023-04-02T19:28:07.375Z,100659.41
2023-04-02T19:31:00.260Z,100664.36
2023-04-02T19:33:29.543Z,100670.15
2023-04-02T19:36:10.155Z,100675.58
2023-04-02T19:39:01.471Z,100675.27
2023-04-02T19:41:34.582Z,100676.30
2023-04-02T19:44:05.474Z,100678.49
2023-04-02T19:46:32.837Z,100679.70
2023-04-02T19:49:23.084Z,100689.73
2023-04-02T19:51:50.996Z,100690.42
2023-04-02T19:54:20.953Z,100679.53
2023-04-02T19:56:53.203Z,100689.85
2023-04-02T19:59:27.425Z,100709.06
2023-04-02T20:01:58.999Z,100721.73
2023-04-02T20:04:25.872Z,100712.61
2023-04-02T20:06:53.652Z,100705.31
2023-04-02T20:09:23.918Z,100677.58
2023-04-02T20:12:14.994Z,100671.11
2023-04-02T20:14:42.141Z,100675.60
2023-04-02T20:17:12.185Z,100682.36
2023-04-02T20:19:42.991Z,100679.94
2023-04-02T20:22:26.539Z,100677.17
2023-04-02T20:24:54.955Z,100691.30
2023-04-02T20:30:08.652Z,100703.90
2023-04-02T20:32:41.494Z,100716.23
2023-04-02T20:35:11.271Z,100717.38
2023-04-02T20:37:39.654Z,100710.72
2023-04-02T20:40:14.006Z,100715.93
2023-04-02T20:42:45.474Z,100710.99
2023-04-02T20:45:17.442Z,100712.27
2023-04-02T20:47:44.620Z,100717.66
2023-04-02T20:50:13.726Z,100719.60
2023-04-02T20:52:44.789Z,100717.23
2023-04-02T20:55:11.879Z,100712.34
2023-04-02T20:57:38.995Z,100715.56
2023-04-02T21:00:08.243Z,100730.75
2023-04-02T21:02:35.001Z,100731.01
2023-04-02T21:05:01.684Z,100729.94
2023-04-02T21:07:28.353Z,100730.68
2023-04-02T21:09:54.960Z,100731.33
2023-04-02T21:12:21.689Z,100729.98
2023-04-02T21:14:49.340Z,100735.13
2023-04-02T21:17:16.504Z,100732.48
2023-04-02T21:19:43.188Z,100728.17
2023-04-02T21:22:09.808Z,100721.76
2023-04-02T21:24:36.412Z,100708.58
2023-04-02T21:27:03.064Z,100705.09
2023-04-02T21:29:29.698Z,100708.85
2023-04-02T21:31:56.725Z,100705.20
2023-04-02T21:34:23.825Z,100706.36
2023-04-02T21:36:50.632Z,100701.61
2023-04-02T21:39:21.200Z,100701.18
2023-04-02T21:41:53.153Z,100699.58
2023-04-02T21:44:22.204Z,100698.75
2023-04-02T21:46:51.824Z,100697.26
2023-04-02T21:49:26.229Z,100699.57
2023-04-02T21:51:52.935Z,100702.30
2023-04-02T21:54:20.018Z,100694.05
2023-04-02T21:56:47.728Z,100696.96
2023-04-02T21:59:16.032Z,100695.23
2023-04-02T22:01:45.456Z,100694.48
2023-04-02T22:04:17.633Z,100692.66
2023-04-02T22:06:44.882Z,100692.89
2023-04-02T22:09:14.949Z,100697.23
2023-04-02T22:11:45.514Z,100697.56
2023-04-02T22:16:58.808Z,100702.86
2023-04-02T22:19:26.661Z,100706.27
2023-04-02T22:21:53.308Z,100708.68
2023-04-02T22:24:22.182Z,100708.10
2023-04-02T22:26:49.111Z,100708.81
2023-04-02T22:29:16.499Z,100704.48
2023-04-02T22:31:43.237Z,100703.50
2023-04-02T22:34:10.406Z,100703.76
2023-04-02T22:36:37.130Z,100706.05
2023-04-02T22:39:07.034Z,100709.98
2023-04-02T22:41:33.756Z,100715.11
2023-04-02T22:44:01.769Z,100712.65
2023-04-02T22:46:30.185Z,100707.59
2023-04-02T22:48:57.667Z,100707.41
2023-04-02T22:54:11.959Z,100709.14
2023-04-02T22:56:38.629Z,100706.05
2023-04-02T22:59:05.845Z,100711.48
2023-04-02T23:01:36.069Z,100706.98
2023-04-02T23:04:05.030Z,100714.64
2023-04-02T23:06:32.097Z,100714.74
2023-04-02T23:08:58.754Z,100720.88
2023-04-02T23:11:27.865Z,100723.82
2023-04-02T23:13:57.683Z,100725.05
2023-04-02T23:16:27.242Z,100728.23
2023-04-02T23:18:55.559Z,100726.52
2023-04-02T23:21:23.406Z,100731.55
2023-04-02T23:23:51.569Z,100728.38
2023-04-02T23:26:29.438Z,100726.97
2023-04-02T23:28:57.689Z,100729.70
2023-04-02T23:31:24.890Z,100727.11
2023-04-02T23:33:52.653Z,100725.45
2023-04-02T23:36:32.091Z,100727.44
2023-04-02T23:39:02.427Z,100729.81
2023-04-02T23:41:30.518Z,100727.08
2023-04-02T23:43:58.302Z,100725.08
2023-04-02T23:46:25.927Z,100725.75
2023-04-02T23:48:53.337Z,100723.88
2023-04-02T23:51:20.121Z,100722.70
2023-04-02T23:53:47.732Z,100724.84
2023-04-02T23:56:14.412Z,100721.95
2023-04-02T23:58:41.021Z,100718.29
